sensor_id;sensor_type;location;lat;lon;timestamp;P1;durP1;ratioP1;P2;durP2;ratioP2
3718;SDS011;1875;52.492;6.860;2022-09-17T00:00:24;244.90;;;66.70;;
3718;SDS011;1875;52.492;6.860;2022-09-17T00:02:52;235.53;;;66.03;;
3718;SDS011;1875;52.492;6.860;2022-09-17T00:05:21;221.63;;;63.03;;
3718;SDS011;1875;52.492;6.860;2022-09-17T00:07:50;239.53;;;67.77;;
3718;SDS011;1875;52.492;6.860;2022-09-17T00:10:19;232.27;;;61.53;;
3718;SDS011;1875;52.492;6.860;2022-09-17T00:12:48;220.67;;;57.43;;
3718;SDS011;1875;52.492;6.860;2022-09-17T00:15:16;227.63;;;65.77;;
3718;SDS011;1875;52.492;6.860;2022-09-17T00:17:44;242.27;;;67.07;;
3718;SDS011;1875;52.492;6.860;2022-09-17T00:20:11;202.03;;;52.27;;
3718;SDS011;1875;52.492;6.860;2022-09-17T00:22:39;239.90;;;63.37;;
3718;SDS011;1875;52.492;6.860;2022-09-17T00:25:08;216.93;;;53.57;;
3718;SDS011;1875;52.492;6.860;2022-09-17T00:27:35;241.27;;;70.20;;
3718;SDS011;1875;52.492;6.860;2022-09-17T00:30:03;226.80;;;63.43;;
3718;SDS011;1875;52.492;6.860;2022-09-17T00:32:31;277.83;;;82.33;;
3718;SDS011;1875;52.492;6.860;2022-09-17T00:34:59;257.20;;;68.63;;
3718;SDS011;1875;52.492;6.860;2022-09-17T00:37:26;238.07;;;66.47;;
3718;SDS011;1875;52.492;6.860;2022-09-17T00:39:54;251.60;;;79.00;;
3718;SDS011;1875;52.492;6.860;2022-09-17T00:42:23;237.77;;;68.60;;
3718;SDS011;1875;52.492;6.860;2022-09-17T00:44:51;242.60;;;64.83;;
3718;SDS011;1875;52.492;6.860;2022-09-17T00:47:21;240.07;;;66.97;;
3718;SDS011;1875;52.492;6.860;2022-09-17T00:49:52;239.63;;;67.67;;
3718;SDS011;1875;52.492;6.860;2022-09-17T00:52:24;253.77;;;69.40;;
3718;SDS011;1875;52.492;6.860;2022-09-17T00:54:55;231.03;;;66.07;;
3718;SDS011;1875;52.492;6.860;2022-09-17T00:57:28;203.67;;;50.47;;
3718;SDS011;1875;52.492;6.860;2022-09-17T00:59:56;245.10;;;71.03;;
3718;SDS011;1875;52.492;6.860;2022-09-17T01:02:24;202.70;;;53.07;;
3718;SDS011;1875;52.492;6.860;2022-09-17T01:04:52;236.70;;;67.70;;
3718;SDS011;1875;52.492;6.860;2022-09-17T01:07:32;242.67;;;69.07;;
3718;SDS011;1875;52.492;6.860;2022-09-17T01:10:11;244.37;;;67.73;;
3718;SDS011;1875;52.492;6.860;2022-09-17T01:12:53;210.20;;;53.77;;
3718;SDS011;1875;52.492;6.860;2022-09-17T01:15:30;219.23;;;58.00;;
3718;SDS011;1875;52.492;6.860;2022-09-17T01:18:12;228.67;;;63.97;;
3718;SDS011;1875;52.492;6.860;2022-09-17T01:20:57;216.73;;;61.67;;
3718;SDS011;1875;52.492;6.860;2022-09-17T01:23:45;238.40;;;63.47;;
3718;SDS011;1875;52.492;6.860;2022-09-17T01:26:28;211.77;;;56.70;;
3718;SDS011;1875;52.492;6.860;2022-09-17T01:29:08;243.23;;;66.40;;
3718;SDS011;1875;52.492;6.860;2022-09-17T01:31:41;238.40;;;66.53;;
3718;SDS011;1875;52.492;6.860;2022-09-17T01:34:14;244.43;;;69.50;;
3718;SDS011;1875;52.492;6.860;2022-09-17T01:36:51;251.30;;;66.27;;
3718;SDS011;1875;52.492;6.860;2022-09-17T01:39:28;279.10;;;87.63;;
3718;SDS011;1875;52.492;6.860;2022-09-17T01:42:02;242.37;;;67.97;;
3718;SDS011;1875;52.492;6.860;2022-09-17T01:44:34;244.93;;;67.37;;
3718;SDS011;1875;52.492;6.860;2022-09-17T01:47:06;241.93;;;66.80;;
3718;SDS011;1875;52.492;6.860;2022-09-17T01:49:37;250.20;;;67.20;;
3718;SDS011;1875;52.492;6.860;2022-09-17T01:52:05;247.33;;;67.33;;
3718;SDS011;1875;52.492;6.860;2022-09-17T01:54:34;257.20;;;77.93;;
3718;SDS011;1875;52.492;6.860;2022-09-17T01:57:08;243.23;;;68.00;;
3718;SDS011;1875;52.492;6.860;2022-09-17T01:59:39;251.23;;;73.60;;
3718;SDS011;1875;52.492;6.860;2022-09-17T02:02:11;242.90;;;67.77;;
3718;SDS011;1875;52.492;6.860;2022-09-17T02:04:42;253.10;;;68.87;;
3718;SDS011;1875;52.492;6.860;2022-09-17T02:07:13;243.83;;;65.87;;
3718;SDS011;1875;52.492;6.860;2022-09-17T02:09:45;239.93;;;66.67;;
3718;SDS011;1875;52.492;6.860;2022-09-17T02:12:17;228.50;;;62.80;;
3718;SDS011;1875;52.492;6.860;2022-09-17T02:14:47;209.20;;;52.90;;
3718;SDS011;1875;52.492;6.860;2022-09-17T02:17:20;243.57;;;65.77;;
3718;SDS011;1875;52.492;6.860;2022-09-17T02:19:50;230.10;;;62.67;;
3718;SDS011;1875;52.492;6.860;2022-09-17T02:22:20;237.33;;;63.33;;
3718;SDS011;1875;52.492;6.860;2022-09-17T02:24:51;241.13;;;68.70;;
3718;SDS011;1875;52.492;6.860;2022-09-17T02:27:30;248.57;;;67.30;;
3718;SDS011;1875;52.492;6.860;2022-09-17T02:30:03;234.37;;;64.70;;
3718;SDS011;1875;52.492;6.860;2022-09-17T02:32:32;231.03;;;64.57;;
3718;SDS011;1875;52.492;6.860;2022-09-17T02:35:00;256.73;;;70.30;;
3718;SDS011;1875;52.492;6.860;2022-09-17T02:37:28;248.17;;;73.60;;
3718;SDS011;1875;52.492;6.860;2022-09-17T02:39:55;264.80;;;80.40;;
3718;SDS011;1875;52.492;6.860;2022-09-17T02:42:26;256.83;;;69.03;;
3718;SDS011;1875;52.492;6.860;2022-09-17T02:44:59;245.00;;;68.40;;
3718;SDS011;1875;52.492;6.860;2022-09-17T02:47:35;258.43;;;69.63;;
3718;SDS011;1875;52.492;6.860;2022-09-17T02:50:23;246.33;;;72.37;;
3718;SDS011;1875;52.492;6.860;2022-09-17T02:53:02;246.87;;;67.50;;
3718;SDS011;1875;52.492;6.860;2022-09-17T02:55:35;257.03;;;74.73;;
3718;SDS011;1875;52.492;6.860;2022-09-17T02:58:08;243.00;;;66.47;;
3718;SDS011;1875;52.492;6.860;2022-09-17T03:00:43;248.67;;;73.13;;
3718;SDS011;1875;52.492;6.860;2022-09-17T03:03:14;252.87;;;72.93;;
3718;SDS011;1875;52.492;6.860;2022-09-17T03:05:43;201.97;;;51.87;;
3718;SDS011;1875;52.492;6.860;2022-09-17T03:08:12;244.37;;;67.77;;
3718;SDS011;1875;52.492;6.860;2022-09-17T03:10:40;244.47;;;66.97;;
3718;SDS011;1875;52.492;6.860;2022-09-17T03:13:08;246.97;;;69.60;;
3718;SDS011;1875;52.492;6.860;2022-09-17T03:15:35;242.80;;;66.53;;
3718;SDS011;1875;52.492;6.860;2022-09-17T03:18:03;254.90;;;73.67;;
3718;SDS011;1875;52.492;6.860;2022-09-17T03:20:32;255.97;;;72.43;;
3718;SDS011;1875;52.492;6.860;2022-09-17T03:22:59;247.63;;;67.30;;
3718;SDS011;1875;52.492;6.860;2022-09-17T03:25:27;253.37;;;76.17;;
3718;SDS011;1875;52.492;6.860;2022-09-17T03:27:54;252.67;;;69.13;;
3718;SDS011;1875;52.492;6.860;2022-09-17T03:30:22;243.60;;;68.73;;
3718;SDS011;1875;52.492;6.860;2022-09-17T03:32:49;247.00;;;69.53;;
3718;SDS011;1875;52.492;6.860;2022-09-17T03:35:17;257.10;;;77.40;;
3718;SDS011;1875;52.492;6.860;2022-09-17T03:37:46;256.23;;;79.67;;
3718;SDS011;1875;52.492;6.860;2022-09-17T03:40:13;247.67;;;66.33;;
3718;SDS011;1875;52.492;6.860;2022-09-17T03:42:41;261.20;;;73.30;;
3718;SDS011;1875;52.492;6.860;2022-09-17T03:45:09;236.17;;;62.70;;
3718;SDS011;1875;52.492;6.860;2022-09-17T03:47:36;250.20;;;66.90;;
3718;SDS011;1875;52.492;6.860;2022-09-17T03:50:04;237.77;;;62.50;;
3718;SDS011;1875;52.492;6.860;2022-09-17T03:52:33;232.50;;;60.47;;
3718;SDS011;1875;52.492;6.860;2022-09-17T03:55:02;244.80;;;59.60;;
3718;SDS011;1875;52.492;6.860;2022-09-17T03:57:30;256.03;;;70.27;;
3718;SDS011;1875;52.492;6.860;2022-09-17T03:59:58;241.07;;;62.67;;
3718;SDS011;1875;52.492;6.860;2022-09-17T04:02:25;239.43;;;58.23;;
3718;SDS011;1875;52.492;6.860;2022-09-17T04:04:53;238.83;;;60.50;;
3718;SDS011;1875;52.492;6.860;2022-09-17T04:07:21;245.00;;;62.20;;
3718;SDS011;1875;52.492;6.860;2022-09-17T04:09:49;250.10;;;63.70;;
3718;SDS011;1875;52.492;6.860;2022-09-17T04:12:18;246.70;;;63.43;;
3718;SDS011;1875;52.492;6.860;2022-09-17T04:14:46;243.57;;;60.57;;
3718;SDS011;1875;52.492;6.860;2022-09-17T04:17:13;245.23;;;61.50;;
3718;SDS011;1875;52.492;6.860;2022-09-17T04:19:43;247.63;;;62.87;;
3718;SDS011;1875;52.492;6.860;2022-09-17T04:22:10;246.20;;;59.67;;
3718;SDS011;1875;52.492;6.860;2022-09-17T04:24:38;249.83;;;63.70;;
3718;SDS011;1875;52.492;6.860;2022-09-17T04:27:06;253.73;;;64.07;;
3718;SDS011;1875;52.492;6.860;2022-09-17T04:29:34;252.87;;;63.97;;
3718;SDS011;1875;52.492;6.860;2022-09-17T04:32:02;257.73;;;67.73;;
3718;SDS011;1875;52.492;6.860;2022-09-17T04:34:29;253.87;;;64.33;;
3718;SDS011;1875;52.492;6.860;2022-09-17T04:36:58;254.53;;;62.83;;
3718;SDS011;1875;52.492;6.860;2022-09-17T04:39:25;252.93;;;62.20;;
3718;SDS011;1875;52.492;6.860;2022-09-17T04:41:53;256.07;;;64.70;;
3718;SDS011;1875;52.492;6.860;2022-09-17T04:44:21;256.03;;;63.03;;
3718;SDS011;1875;52.492;6.860;2022-09-17T04:46:50;259.43;;;64.30;;
3718;SDS011;1875;52.492;6.860;2022-09-17T04:49:17;262.97;;;65.53;;
3718;SDS011;1875;52.492;6.860;2022-09-17T04:51:45;252.57;;;60.07;;
3718;SDS011;1875;52.492;6.860;2022-09-17T04:54:12;259.10;;;64.53;;
3718;SDS011;1875;52.492;6.860;2022-09-17T04:56:40;258.80;;;64.40;;
3718;SDS011;1875;52.492;6.860;2022-09-17T04:59:07;256.97;;;63.53;;
3718;SDS011;1875;52.492;6.860;2022-09-17T05:01:35;258.73;;;63.00;;
3718;SDS011;1875;52.492;6.860;2022-09-17T05:04:04;263.17;;;65.93;;
3718;SDS011;1875;52.492;6.860;2022-09-17T05:06:31;260.07;;;65.87;;
3718;SDS011;1875;52.492;6.860;2022-09-17T05:08:59;266.07;;;67.83;;
3718;SDS011;1875;52.492;6.860;2022-09-17T05:11:27;262.60;;;66.93;;
3718;SDS011;1875;52.492;6.860;2022-09-17T05:13:55;265.70;;;68.37;;
3718;SDS011;1875;52.492;6.860;2022-09-17T05:16:22;265.97;;;70.83;;
3718;SDS011;1875;52.492;6.860;2022-09-17T05:18:50;259.23;;;63.70;;
3718;SDS011;1875;52.492;6.860;2022-09-17T05:21:19;259.10;;;64.60;;
3718;SDS011;1875;52.492;6.860;2022-09-17T05:23:46;263.43;;;67.53;;
3718;SDS011;1875;52.492;6.860;2022-09-17T05:26:14;257.77;;;62.20;;
3718;SDS011;1875;52.492;6.860;2022-09-17T05:28:41;268.30;;;69.83;;
3718;SDS011;1875;52.492;6.860;2022-09-17T05:31:09;262.40;;;67.87;;
3718;SDS011;1875;52.492;6.860;2022-09-17T05:33:37;276.53;;;76.53;;
3718;SDS011;1875;52.492;6.860;2022-09-17T05:36:04;263.20;;;67.23;;
3718;SDS011;1875;52.492;6.860;2022-09-17T05:38:34;258.33;;;64.27;;
3718;SDS011;1875;52.492;6.860;2022-09-17T05:41:02;281.53;;;76.17;;
3718;SDS011;1875;52.492;6.860;2022-09-17T05:43:31;261.40;;;64.37;;
3718;SDS011;1875;52.492;6.860;2022-09-17T05:46:02;261.97;;;65.43;;
3718;SDS011;1875;52.492;6.860;2022-09-17T05:48:30;261.20;;;63.60;;
3718;SDS011;1875;52.492;6.860;2022-09-17T05:50:58;277.27;;;74.00;;
3718;SDS011;1875;52.492;6.860;2022-09-17T05:53:26;258.60;;;63.30;;
3718;SDS011;1875;52.492;6.860;2022-09-17T05:55:56;265.93;;;66.33;;
3718;SDS011;1875;52.492;6.860;2022-09-17T05:58:24;269.87;;;69.67;;
3718;SDS011;1875;52.492;6.860;2022-09-17T06:00:52;273.97;;;73.53;;
3718;SDS011;1875;52.492;6.860;2022-09-17T06:03:19;264.03;;;65.07;;
3718;SDS011;1875;52.492;6.860;2022-09-17T06:05:52;263.43;;;67.40;;
3718;SDS011;1875;52.492;6.860;2022-09-17T06:08:20;266.87;;;67.23;;
3718;SDS011;1875;52.492;6.860;2022-09-17T06:10:48;270.50;;;68.93;;
3718;SDS011;1875;52.492;6.860;2022-09-17T06:13:17;259.13;;;62.93;;
3718;SDS011;1875;52.492;6.860;2022-09-17T06:15:48;270.50;;;67.90;;
3718;SDS011;1875;52.492;6.860;2022-09-17T06:18:16;266.20;;;64.90;;
3718;SDS011;1875;52.492;6.860;2022-09-17T06:20:50;268.60;;;64.83;;
3718;SDS011;1875;52.492;6.860;2022-09-17T06:23:18;267.27;;;64.60;;
3718;SDS011;1875;52.492;6.860;2022-09-17T06:25:49;268.27;;;67.10;;
3718;SDS011;1875;52.492;6.860;2022-09-17T06:28:19;277.83;;;71.07;;
3718;SDS011;1875;52.492;6.860;2022-09-17T06:30:46;272.27;;;68.43;;
3718;SDS011;1875;52.492;6.860;2022-09-17T06:33:14;264.63;;;63.33;;
3718;SDS011;1875;52.492;6.860;2022-09-17T06:35:41;278.33;;;69.27;;
3718;SDS011;1875;52.492;6.860;2022-09-17T06:38:09;266.40;;;64.57;;
3718;SDS011;1875;52.492;6.860;2022-09-17T06:40:37;276.77;;;68.13;;
3718;SDS011;1875;52.492;6.860;2022-09-17T06:43:04;272.77;;;65.27;;
3718;SDS011;1875;52.492;6.860;2022-09-17T06:45:33;274.30;;;66.00;;
3718;SDS011;1875;52.492;6.860;2022-09-17T06:48:02;273.77;;;67.87;;
3718;SDS011;1875;52.492;6.860;2022-09-17T06:50:31;276.60;;;68.00;;
3718;SDS011;1875;52.492;6.860;2022-09-17T06:52:58;273.43;;;66.57;;
3718;SDS011;1875;52.492;6.860;2022-09-17T06:55:26;284.70;;;73.33;;
3718;SDS011;1875;52.492;6.860;2022-09-17T06:57:57;279.47;;;68.43;;
3718;SDS011;1875;52.492;6.860;2022-09-17T07:00:25;277.33;;;67.90;;
3718;SDS011;1875;52.492;6.860;2022-09-17T07:02:57;275.10;;;66.70;;
3718;SDS011;1875;52.492;6.860;2022-09-17T07:05:26;282.40;;;71.67;;
3718;SDS011;1875;52.492;6.860;2022-09-17T07:07:54;177.60;;;50.60;;
3718;SDS011;1875;52.492;6.860;2022-09-17T07:10:22;212.70;;;60.97;;
3718;SDS011;1875;52.492;6.860;2022-09-17T07:12:49;217.20;;;55.93;;
3718;SDS011;1875;52.492;6.860;2022-09-17T07:15:17;227.63;;;62.93;;
3718;SDS011;1875;52.492;6.860;2022-09-17T07:17:45;210.10;;;54.60;;
3718;SDS011;1875;52.492;6.860;2022-09-17T07:20:14;195.13;;;54.87;;
3718;SDS011;1875;52.492;6.860;2022-09-17T07:22:42;184.57;;;49.47;;
3718;SDS011;1875;52.492;6.860;2022-09-17T07:25:10;211.67;;;59.03;;
3718;SDS011;1875;52.492;6.860;2022-09-17T07:27:38;244.80;;;61.57;;
3718;SDS011;1875;52.492;6.860;2022-09-17T07:30:05;221.57;;;62.23;;
3718;SDS011;1875;52.492;6.860;2022-09-17T07:32:34;223.00;;;62.40;;
3718;SDS011;1875;52.492;6.860;2022-09-17T07:35:01;240.67;;;68.43;;
3718;SDS011;1875;52.492;6.860;2022-09-17T07:37:30;246.00;;;73.03;;
3718;SDS011;1875;52.492;6.860;2022-09-17T07:39:58;222.60;;;62.47;;
3718;SDS011;1875;52.492;6.860;2022-09-17T07:42:25;241.87;;;68.60;;
3718;SDS011;1875;52.492;6.860;2022-09-17T07:44:53;249.00;;;70.13;;
3718;SDS011;1875;52.492;6.860;2022-09-17T07:47:27;232.13;;;65.17;;
3718;SDS011;1875;52.492;6.860;2022-09-17T07:49:54;257.70;;;67.23;;
3718;SDS011;1875;52.492;6.860;2022-09-17T07:52:22;253.90;;;73.40;;
3718;SDS011;1875;52.492;6.860;2022-09-17T07:54:51;254.43;;;70.00;;
3718;SDS011;1875;52.492;6.860;2022-09-17T07:57:18;251.13;;;68.13;;
3718;SDS011;1875;52.492;6.860;2022-09-17T07:59:46;249.70;;;67.43;;
3718;SDS011;1875;52.492;6.860;2022-09-17T08:02:14;232.83;;;62.67;;
3718;SDS011;1875;52.492;6.860;2022-09-17T08:04:49;241.63;;;67.30;;
3718;SDS011;1875;52.492;6.860;2022-09-17T08:07:16;230.57;;;60.73;;
3718;SDS011;1875;52.492;6.860;2022-09-17T08:09:44;219.33;;;55.13;;
3718;SDS011;1875;52.492;6.860;2022-09-17T08:12:13;211.50;;;51.80;;
3718;SDS011;1875;52.492;6.860;2022-09-17T08:14:40;222.53;;;53.57;;
3718;SDS011;1875;52.492;6.860;2022-09-17T08:17:08;220.57;;;54.30;;
3718;SDS011;1875;52.492;6.860;2022-09-17T08:19:35;230.63;;;58.10;;
3718;SDS011;1875;52.492;6.860;2022-09-17T08:22:03;235.30;;;60.63;;
3718;SDS011;1875;52.492;6.860;2022-09-17T08:24:30;221.33;;;54.53;;
3718;SDS011;1875;52.492;6.860;2022-09-17T08:26:58;216.37;;;52.37;;
3718;SDS011;1875;52.492;6.860;2022-09-17T08:29:27;237.83;;;63.27;;
3718;SDS011;1875;52.492;6.860;2022-09-17T08:32:00;251.20;;;68.27;;
3718;SDS011;1875;52.492;6.860;2022-09-17T08:34:28;256.60;;;69.93;;
3718;SDS011;1875;52.492;6.860;2022-09-17T08:36:55;244.37;;;63.63;;
3718;SDS011;1875;52.492;6.860;2022-09-17T08:39:23;230.60;;;57.53;;
3718;SDS011;1875;52.492;6.860;2022-09-17T08:41:51;259.00;;;69.30;;
3718;SDS011;1875;52.492;6.860;2022-09-17T08:44:24;270.73;;;69.10;;
3718;SDS011;1875;52.492;6.860;2022-09-17T08:46:56;255.33;;;67.97;;
3718;SDS011;1875;52.492;6.860;2022-09-17T08:49:29;251.03;;;67.10;;
3718;SDS011;1875;52.492;6.860;2022-09-17T08:52:08;259.27;;;73.07;;
3718;SDS011;1875;52.492;6.860;2022-09-17T08:54:57;271.53;;;74.27;;
3718;SDS011;1875;52.492;6.860;2022-09-17T08:57:31;277.70;;;79.03;;
3718;SDS011;1875;52.492;6.860;2022-09-17T09:00:06;249.23;;;63.40;;
3718;SDS011;1875;52.492;6.860;2022-09-17T09:02:45;242.03;;;62.93;;
3718;SDS011;1875;52.492;6.860;2022-09-17T09:05:18;241.53;;;61.90;;
3718;SDS011;1875;52.492;6.860;2022-09-17T09:07:48;247.57;;;64.47;;
3718;SDS011;1875;52.492;6.860;2022-09-17T09:10:19;321.23;;;89.87;;
3718;SDS011;1875;52.492;6.860;2022-09-17T09:12:49;240.57;;;59.53;;
3718;SDS011;1875;52.492;6.860;2022-09-17T09:15:20;238.40;;;59.97;;
3718;SDS011;1875;52.492;6.860;2022-09-17T09:17:54;247.33;;;59.53;;
3718;SDS011;1875;52.492;6.860;2022-09-17T09:20:25;238.07;;;58.50;;
3718;SDS011;1875;52.492;6.860;2022-09-17T09:22:58;254.13;;;63.37;;
3718;SDS011;1875;52.492;6.860;2022-09-17T09:25:29;261.93;;;68.43;;
3718;SDS011;1875;52.492;6.860;2022-09-17T09:28:10;243.70;;;60.47;;
3718;SDS011;1875;52.492;6.860;2022-09-17T09:30:46;261.63;;;67.80;;
3718;SDS011;1875;52.492;6.860;2022-09-17T09:33:23;260.93;;;65.13;;
3718;SDS011;1875;52.492;6.860;2022-09-17T09:35:53;252.07;;;61.80;;
3718;SDS011;1875;52.492;6.860;2022-09-17T09:38:21;255.40;;;64.67;;
3718;SDS011;1875;52.492;6.860;2022-09-17T09:40:57;316.67;;;83.53;;
3718;SDS011;1875;52.492;6.860;2022-09-17T09:43:30;259.27;;;66.33;;
3718;SDS011;1875;52.492;6.860;2022-09-17T09:46:35;251.87;;;64.63;;
3718;SDS011;1875;52.492;6.860;2022-09-17T09:49:21;233.47;;;56.40;;
3718;SDS011;1875;52.492;6.860;2022-09-17T09:51:59;246.70;;;61.67;;
3718;SDS011;1875;52.492;6.860;2022-09-17T09:54:36;248.23;;;65.70;;
3718;SDS011;1875;52.492;6.860;2022-09-17T09:57:11;241.47;;;54.53;;
3718;SDS011;1875;52.492;6.860;2022-09-17T09:59:40;243.67;;;56.40;;
3718;SDS011;1875;52.492;6.860;2022-09-17T10:02:07;243.07;;;58.90;;
3718;SDS011;1875;52.492;6.860;2022-09-17T10:04:37;273.87;;;75.40;;
3718;SDS011;1875;52.492;6.860;2022-09-17T10:07:05;255.53;;;63.80;;
3718;SDS011;1875;52.492;6.860;2022-09-17T10:09:33;254.40;;;66.53;;
3718;SDS011;1875;52.492;6.860;2022-09-17T10:12:13;260.73;;;66.30;;
3718;SDS011;1875;52.492;6.860;2022-09-17T10:14:44;248.07;;;59.80;;
3718;SDS011;1875;52.492;6.860;2022-09-17T10:17:16;273.07;;;73.80;;
3718;SDS011;1875;52.492;6.860;2022-09-17T10:22:39;261.90;;;65.30;;
3718;SDS011;1875;52.492;6.860;2022-09-17T10:25:17;264.90;;;67.50;;
3718;SDS011;1875;52.492;6.860;2022-09-17T10:27:49;260.33;;;66.87;;
3718;SDS011;1875;52.492;6.860;2022-09-17T10:30:17;253.53;;;65.37;;
3718;SDS011;1875;52.492;6.860;2022-09-17T10:32:50;254.83;;;65.97;;
3718;SDS011;1875;52.492;6.860;2022-09-17T10:35:39;256.00;;;66.10;;
3718;SDS011;1875;52.492;6.860;2022-09-17T10:38:24;249.90;;;62.43;;
3718;SDS011;1875;52.492;6.860;2022-09-17T10:40:54;294.13;;;83.63;;
3718;SDS011;1875;52.492;6.860;2022-09-17T10:43:34;259.30;;;66.10;;
3718;SDS011;1875;52.492;6.860;2022-09-17T10:46:02;255.67;;;65.10;;
3718;SDS011;1875;52.492;6.860;2022-09-17T10:48:31;260.60;;;64.10;;
3718;SDS011;1875;52.492;6.860;2022-09-17T10:51:04;268.30;;;64.57;;
3718;SDS011;1875;52.492;6.860;2022-09-17T10:53:34;279.97;;;70.93;;
3718;SDS011;1875;52.492;6.860;2022-09-17T10:56:19;262.23;;;64.10;;
3718;SDS011;1875;52.492;6.860;2022-09-17T10:58:51;260.83;;;61.10;;
3718;SDS011;1875;52.492;6.860;2022-09-17T11:01:27;262.50;;;62.83;;
3718;SDS011;1875;52.492;6.860;2022-09-17T11:04:03;255.57;;;59.20;;
3718;SDS011;1875;52.492;6.860;2022-09-17T11:07:01;257.97;;;61.37;;
3718;SDS011;1875;52.492;6.860;2022-09-17T11:09:39;269.57;;;65.77;;
3718;SDS011;1875;52.492;6.860;2022-09-17T11:12:20;263.33;;;64.97;;
3718;SDS011;1875;52.492;6.860;2022-09-17T11:14:56;267.07;;;68.10;;
3718;SDS011;1875;52.492;6.860;2022-09-17T11:17:34;275.97;;;72.97;;
3718;SDS011;1875;52.492;6.860;2022-09-17T11:20:13;263.63;;;67.80;;
3718;SDS011;1875;52.492;6.860;2022-09-17T11:22:51;262.53;;;66.43;;
3718;SDS011;1875;52.492;6.860;2022-09-17T11:25:36;272.50;;;72.87;;
3718;SDS011;1875;52.492;6.860;2022-09-17T11:28:10;268.43;;;67.60;;
3718;SDS011;1875;52.492;6.860;2022-09-17T11:30:48;261.80;;;65.73;;
3718;SDS011;1875;52.492;6.860;2022-09-17T11:36:18;253.90;;;61.43;;
3718;SDS011;1875;52.492;6.860;2022-09-17T11:38:49;270.50;;;69.70;;
3718;SDS011;1875;52.492;6.860;2022-09-17T11:41:18;258.23;;;64.43;;
3718;SDS011;1875;52.492;6.860;2022-09-17T11:43:48;258.33;;;64.83;;
3718;SDS011;1875;52.492;6.860;2022-09-17T11:46:21;255.73;;;63.00;;
3718;SDS011;1875;52.492;6.860;2022-09-17T11:48:51;259.57;;;67.07;;
3718;SDS011;1875;52.492;6.860;2022-09-17T11:51:23;261.97;;;66.47;;
3718;SDS011;1875;52.492;6.860;2022-09-17T11:53:56;270.93;;;68.10;;
3718;SDS011;1875;52.492;6.860;2022-09-17T11:56:28;262.70;;;64.47;;
3718;SDS011;1875;52.492;6.860;2022-09-17T11:58:57;262.47;;;63.10;;
3718;SDS011;1875;52.492;6.860;2022-09-17T12:01:30;270.07;;;64.20;;
3718;SDS011;1875;52.492;6.860;2022-09-17T12:04:18;264.87;;;65.47;;
3718;SDS011;1875;52.492;6.860;2022-09-17T12:06:55;263.70;;;61.97;;
3718;SDS011;1875;52.492;6.860;2022-09-17T12:09:27;282.60;;;56.20;;
3718;SDS011;1875;52.492;6.860;2022-09-17T12:11:56;278.20;;;55.80;;
3718;SDS011;1875;52.492;6.860;2022-09-17T12:14:28;282.90;;;56.47;;
3718;SDS011;1875;52.492;6.860;2022-09-17T12:16:57;303.20;;;78.87;;
3718;SDS011;1875;52.492;6.860;2022-09-17T12:19:27;232.23;;;60.47;;
3718;SDS011;1875;52.492;6.860;2022-09-17T12:21:58;253.30;;;65.37;;
3718;SDS011;1875;52.492;6.860;2022-09-17T12:24:29;222.60;;;56.10;;
3718;SDS011;1875;52.492;6.860;2022-09-17T12:27:00;282.13;;;83.07;;
3718;SDS011;1875;52.492;6.860;2022-09-17T12:29:46;232.10;;;58.43;;
3718;SDS011;1875;52.492;6.860;2022-09-17T12:32:36;287.47;;;87.90;;
3718;SDS011;1875;52.492;6.860;2022-09-17T12:35:16;219.30;;;57.37;;
3718;SDS011;1875;52.492;6.860;2022-09-17T12:37:52;220.40;;;57.80;;
3718;SDS011;1875;52.492;6.860;2022-09-17T12:40:29;268.60;;;76.47;;
3718;SDS011;1875;52.492;6.860;2022-09-17T12:43:02;239.43;;;66.93;;
3718;SDS011;1875;52.492;6.860;2022-09-17T12:45:42;241.30;;;66.30;;
3718;SDS011;1875;52.492;6.860;2022-09-17T12:48:22;237.47;;;62.47;;
3718;SDS011;1875;52.492;6.860;2022-09-17T12:51:02;249.80;;;73.47;;
3718;SDS011;1875;52.492;6.860;2022-09-17T12:53:40;230.87;;;59.87;;
3718;SDS011;1875;52.492;6.860;2022-09-17T12:56:14;228.70;;;58.90;;
3718;SDS011;1875;52.492;6.860;2022-09-17T12:58:57;248.77;;;63.93;;
3718;SDS011;1875;52.492;6.860;2022-09-17T13:01:32;273.70;;;64.13;;
3718;SDS011;1875;52.492;6.860;2022-09-17T13:04:06;283.33;;;68.27;;
3718;SDS011;1875;52.492;6.860;2022-09-17T13:06:52;280.53;;;63.40;;
3718;SDS011;1875;52.492;6.860;2022-09-17T13:09:45;287.43;;;68.67;;
3718;SDS011;1875;52.492;6.860;2022-09-17T13:12:28;278.47;;;66.50;;
3718;SDS011;1875;52.492;6.860;2022-09-17T13:18:06;283.53;;;66.63;;
3718;SDS011;1875;52.492;6.860;2022-09-17T13:20:59;276.97;;;71.13;;
3718;SDS011;1875;52.492;6.860;2022-09-17T13:23:32;292.07;;;68.60;;
3718;SDS011;1875;52.492;6.860;2022-09-17T13:26:02;299.77;;;70.20;;
3718;SDS011;1875;52.492;6.860;2022-09-17T13:28:36;301.30;;;67.57;;
3718;SDS011;1875;52.492;6.860;2022-09-17T13:31:12;308.87;;;68.10;;
3718;SDS011;1875;52.492;6.860;2022-09-17T13:33:49;296.57;;;67.23;;
3718;SDS011;1875;52.492;6.860;2022-09-17T13:36:37;300.50;;;66.70;;
3718;SDS011;1875;52.492;6.860;2022-09-17T13:39:07;305.07;;;71.50;;
3718;SDS011;1875;52.492;6.860;2022-09-17T13:41:36;301.77;;;68.43;;
3718;SDS011;1875;52.492;6.860;2022-09-17T13:44:07;301.83;;;69.70;;
3718;SDS011;1875;52.492;6.860;2022-09-17T13:46:37;297.63;;;71.47;;
3718;SDS011;1875;52.492;6.860;2022-09-17T13:49:11;279.43;;;62.67;;
3718;SDS011;1875;52.492;6.860;2022-09-17T13:51:46;297.27;;;71.83;;
3718;SDS011;1875;52.492;6.860;2022-09-17T13:54:16;294.97;;;70.37;;
3718;SDS011;1875;52.492;6.860;2022-09-17T13:56:46;291.60;;;70.27;;
3718;SDS011;1875;52.492;6.860;2022-09-17T13:59:18;280.97;;;62.47;;
3718;SDS011;1875;52.492;6.860;2022-09-17T14:01:55;285.20;;;64.60;;
3718;SDS011;1875;52.492;6.860;2022-09-17T14:04:33;294.80;;;68.73;;
3718;SDS011;1875;52.492;6.860;2022-09-17T14:07:34;288.80;;;65.80;;
3718;SDS011;1875;52.492;6.860;2022-09-17T14:10:32;302.00;;;71.47;;
3718;SDS011;1875;52.492;6.860;2022-09-17T14:13:25;298.13;;;68.57;;
3718;SDS011;1875;52.492;6.860;2022-09-17T14:16:24;302.70;;;71.13;;
3718;SDS011;1875;52.492;6.860;2022-09-17T14:19:01;302.33;;;72.50;;
3718;SDS011;1875;52.492;6.860;2022-09-17T14:21:31;306.30;;;73.43;;
3718;SDS011;1875;52.492;6.860;2022-09-17T14:23:59;311.87;;;77.37;;
3718;SDS011;1875;52.492;6.860;2022-09-17T14:29:26;286.60;;;65.83;;
3718;SDS011;1875;52.492;6.860;2022-09-17T14:32:01;280.10;;;64.73;;
3718;SDS011;1875;52.492;6.860;2022-09-17T14:34:29;285.30;;;65.80;;
3718;SDS011;1875;52.492;6.860;2022-09-17T14:36:57;282.13;;;63.23;;
3718;SDS011;1875;52.492;6.860;2022-09-17T14:39:26;291.77;;;71.60;;
3718;SDS011;1875;52.492;6.860;2022-09-17T14:41:55;292.47;;;67.97;;
3718;SDS011;1875;52.492;6.860;2022-09-17T14:44:24;295.03;;;67.40;;
3718;SDS011;1875;52.492;6.860;2022-09-17T14:46:53;303.67;;;76.40;;
3718;SDS011;1875;52.492;6.860;2022-09-17T14:49:24;296.60;;;70.03;;
3718;SDS011;1875;52.492;6.860;2022-09-17T14:51:53;298.07;;;69.97;;
3718;SDS011;1875;52.492;6.860;2022-09-17T14:54:22;293.80;;;74.70;;
3718;SDS011;1875;52.492;6.860;2022-09-17T14:56:56;271.10;;;65.77;;
3718;SDS011;1875;52.492;6.860;2022-09-17T14:59:26;287.93;;;69.77;;
3718;SDS011;1875;52.492;6.860;2022-09-17T15:01:59;277.63;;;63.73;;
3718;SDS011;1875;52.492;6.860;2022-09-17T15:04:28;290.43;;;71.40;;
3718;SDS011;1875;52.492;6.860;2022-09-17T15:07:05;283.10;;;66.83;;
3718;SDS011;1875;52.492;6.860;2022-09-17T15:09:33;298.13;;;75.93;;
3718;SDS011;1875;52.492;6.860;2022-09-17T15:12:00;286.40;;;70.87;;